createdAt,value
2023-05-25T00:01:15.631Z,10.85
2023-05-25T00:04:40.986Z,10.82
2023-05-25T00:08:06.146Z,10.84
2023-05-25T00:11:31.362Z,10.86
2023-05-25T00:14:56.602Z,10.87
2023-05-25T00:18:21.877Z,10.92
2023-05-25T00:21:47.051Z,10.92
2023-05-25T00:25:12.306Z,10.93
2023-05-25T00:28:37.753Z,10.93
2023-05-25T00:32:03.023Z,10.93
2023-05-25T00:35:28.282Z,10.93
2023-05-25T00:38:53.531Z,10.92
2023-05-25T00:42:18.784Z,10.93
2023-05-25T00:45:44.163Z,10.93
2023-05-25T00:49:09.388Z,10.93
2023-05-25T00:52:34.651Z,10.95
2023-05-25T00:55:59.894Z,10.97
2023-05-25T00:59:25.187Z,10.96
2023-05-25T01:02:50.497Z,10.97
2023-05-25T01:06:15.684Z,10.97
2023-05-25T01:09:40.967Z,10.99
2023-05-25T01:13:06.177Z,11.01
2023-05-25T01:16:31.480Z,11.01
2023-05-25T01:20:09.408Z,11.01
2023-05-25T01:23:21.941Z,11.03
2023-05-25T01:26:47.179Z,11.05
2023-05-25T01:30:12.408Z,11.05
2023-05-25T01:33:37.838Z,11.08
2023-05-25T01:37:03.061Z,11.1
2023-05-25T01:40:28.288Z,11.11
2023-05-25T01:43:53.576Z,11.14
2023-05-25T01:47:18.837Z,11.13
2023-05-25T01:50:44.112Z,11.11
2023-05-25T01:54:09.385Z,11.12
2023-05-25T01:57:34.629Z,11.14
2023-05-25T02:00:59.959Z,11.19
2023-05-25T02:04:25.197Z,11.17
2023-05-25T02:07:50.379Z,11.21
2023-05-25T02:11:15.665Z,11.2
2023-05-25T02:14:40.877Z,11.19
2023-05-25T02:18:06.187Z,11.2
2023-05-25T02:21:31.417Z,11.17
2023-05-25T02:24:56.673Z,11.11
2023-05-25T02:28:21.973Z,11.11
2023-05-25T02:31:47.299Z,11.12
2023-05-25T02:35:12.569Z,11.1
2023-05-25T02:38:38.517Z,11.07
2023-05-25T02:42:03.843Z,11.05
2023-05-25T02:45:29.047Z,11.01
2023-05-25T02:48:54.305Z,11.01
2023-05-25T02:52:19.580Z,11.01
2023-05-25T02:55:45.018Z,11.02
2023-05-25T02:59:10.082Z,11.03
2023-05-25T03:02:35.364Z,10.98
2023-05-25T03:06:00.612Z,10.98
2023-05-25T03:09:25.911Z,10.98
2023-05-25T03:12:51.084Z,10.97
2023-05-25T03:16:16.391Z,10.94
2023-05-25T03:19:41.749Z,10.94
2023-05-25T03:23:06.963Z,10.91
2023-05-25T03:26:32.270Z,10.92
2023-05-25T03:29:57.478Z,10.93
2023-05-25T03:33:22.770Z,10.9
2023-05-25T03:36:48.078Z,10.92
2023-05-25T03:40:13.336Z,10.9
2023-05-25T03:43:38.608Z,10.9
2023-05-25T03:47:03.866Z,10.92
2023-05-25T03:50:29.113Z,10.94
2023-05-25T03:53:54.438Z,10.98
2023-05-25T03:57:19.690Z,11.04
2023-05-25T04:00:44.963Z,11.08
2023-05-25T04:04:10.213Z,11.11
2023-05-25T04:07:35.468Z,11.14
2023-05-25T04:11:00.740Z,11.15
2023-05-25T04:14:26.047Z,11.21
2023-05-25T04:17:51.363Z,11.23
2023-05-25T04:21:16.529Z,11.22
2023-05-25T04:24:41.832Z,11.21
2023-05-25T04:28:07.093Z,11.2
2023-05-25T04:31:32.393Z,11.2
2023-05-25T04:34:57.620Z,11.25
2023-05-25T04:38:22.849Z,11.3
2023-05-25T04:41:48.129Z,11.39
2023-05-25T04:45:13.417Z,11.45
2023-05-25T04:48:38.673Z,11.54
2023-05-25T04:52:03.919Z,11.6
2023-05-25T04:55:29.134Z,11.69
2023-05-25T04:58:54.944Z,11.75
2023-05-25T05:02:20.174Z,11.76
2023-05-25T05:05:45.622Z,11.74
2023-05-25T05:09:10.723Z,11.76
2023-05-25T05:12:35.942Z,11.89
2023-05-25T05:16:01.191Z,12
2023-05-25T05:19:26.421Z,12.1
2023-05-25T05:22:51.665Z,12.22
2023-05-25T05:26:16.970Z,12.38
2023-05-25T05:29:42.789Z,12.52
2023-05-25T05:33:08.111Z,12.62
2023-05-25T05:36:42.027Z,12.74
2023-05-25T05:39:59.387Z,12.83
2023-05-25T05:43:24.664Z,12.93
2023-05-25T05:46:49.924Z,12.99
2023-05-25T05:50:15.103Z,13.06
2023-05-25T05:53:40.409Z,13.18
2023-05-25T05:57:05.659Z,13.31
2023-05-25T06:00:31.749Z,13.34
2023-05-25T06:03:57.813Z,13.31
2023-05-25T06:07:23.089Z,13.38
2023-05-25T06:10:48.312Z,13.53
2023-05-25T06:14:13.592Z,13.68
2023-05-25T06:17:38.913Z,13.95
2023-05-25T06:21:04.117Z,14.19
2023-05-25T06:24:29.398Z,14.36
2023-05-25T06:27:54.664Z,14.44
2023-05-25T06:31:19.995Z,14.59
2023-05-25T06:34:45.243Z,14.71
2023-05-25T06:38:10.398Z,14.75
2023-05-25T06:41:35.618Z,14.96
2023-05-25T06:45:00.851Z,15.19
2023-05-25T06:48:26.077Z,15.27
2023-05-25T06:51:51.394Z,15.37
2023-05-25T06:55:16.481Z,15.5
2023-05-25T06:58:41.684Z,15.51
2023-05-25T07:02:06.914Z,15.6
2023-05-25T07:05:32.129Z,15.72
2023-05-25T07:08:57.387Z,15.82
2023-05-25T07:12:22.602Z,15.78
2023-05-25T07:15:47.986Z,15.69
2023-05-25T07:19:13.058Z,15.76
2023-05-25T07:22:38.285Z,15.8
2023-05-25T07:26:05.671Z,15.67
2023-05-25T07:29:28.714Z,15.66
2023-05-25T07:32:53.957Z,15.64
2023-05-25T07:36:19.141Z,15.49
2023-05-25T07:39:44.914Z,15.49
2023-05-25T07:43:10.179Z,15.58
2023-05-25T07:46:35.385Z,15.68
2023-05-25T07:50:00.577Z,15.7
2023-05-25T07:53:25.830Z,15.65
2023-05-25T07:56:51.061Z,15.64
2023-05-25T08:00:16.306Z,15.7
2023-05-25T08:07:06.693Z,16
2023-05-25T08:10:31.904Z,16.01
2023-05-25T08:13:57.163Z,16.08
2023-05-25T08:17:22.496Z,16.27
2023-05-25T08:20:47.673Z,16.459999
2023-05-25T08:24:12.911Z,16.559999
2023-05-25T08:27:38.238Z,16.57
2023-05-25T08:31:03.606Z,16.690001
2023-05-25T08:34:28.812Z,16.85
2023-05-25T08:37:54.064Z,16.98
2023-05-25T08:41:19.333Z,16.98
2023-05-25T08:44:44.628Z,17.02
2023-05-25T08:48:09.933Z,17.16
2023-05-25T08:51:35.228Z,17.25
2023-05-25T08:55:00.527Z,17.27
2023-05-25T08:58:25.799Z,17.309999
2023-05-25T09:01:51.116Z,17.290001
2023-05-25T09:05:16.418Z,17.280001
2023-05-25T09:08:41.704Z,17.16
2023-05-25T09:12:06.985Z,17.049999
2023-05-25T09:15:32.254Z,17.139999
2023-05-25T09:18:57.655Z,17.24
2023-05-25T09:22:23.012Z,17.290001
2023-05-25T09:25:48.343Z,17.299999
2023-05-25T09:29:13.607Z,17.33
2023-05-25T09:32:38.974Z,17.360001
2023-05-25T09:36:04.301Z,17.440001
2023-05-25T09:39:29.819Z,17.629999
2023-05-25T09:42:55.250Z,17.84
2023-05-25T09:46:20.813Z,18.110001
2023-05-25T09:49:46.390Z,18.360001
2023-05-25T09:53:11.955Z,18.51
2023-05-25T09:56:37.619Z,18.549999
2023-05-25T10:00:03.665Z,18.379999
2023-05-25T10:03:29.136Z,18.290001
2023-05-25T10:06:54.666Z,18.33
2023-05-25T10:10:20.164Z,18.33
2023-05-25T10:13:45.802Z,18.110001
2023-05-25T10:17:11.364Z,17.959999
2023-05-25T10:20:36.723Z,17.76
2023-05-25T10:24:02.079Z,17.85
2023-05-25T10:27:28.093Z,17.77
2023-05-25T10:30:52.806Z,17.75
2023-05-25T10:34:18.244Z,18.01
2023-05-25T10:37:43.716Z,18.33
2023-05-25T10:41:09.811Z,18.65
2023-05-25T10:44:35.583Z,18.75
2023-05-25T10:48:01.363Z,18.76
2023-05-25T10:51:27.237Z,18.940001
2023-05-25T10:54:53.134Z,19.07
2023-05-25T10:58:19.073Z,18.969999
2023-05-25T11:01:44.836Z,18.700001
2023-05-25T11:05:10.507Z,18.690001
2023-05-25T11:08:52.308Z,18.77
2023-05-25T11:12:17.461Z,18.940001
2023-05-25T11:15:43.125Z,19.040001
2023-05-25T11:19:08.026Z,19.25
2023-05-25T11:22:33.252Z,19.360001
2023-05-25T11:25:58.501Z,19.33
2023-05-25T11:29:23.767Z,19.34
2023-05-25T11:32:49.009Z,19.32
2023-05-25T11:36:14.277Z,19.27
2023-05-25T11:39:39.558Z,19.280001
2023-05-25T11:43:04.889Z,19.23
2023-05-25T11:46:30.181Z,19.15
2023-05-25T11:49:55.438Z,19.129999
2023-05-25T11:53:20.717Z,19.18
2023-05-25T11:56:45.978Z,19.309999
2023-05-25T12:00:11.254Z,19.32
2023-05-25T12:03:36.629Z,19.35
2023-05-25T12:07:01.777Z,19.360001
2023-05-25T12:10:27.060Z,19.389999
2023-05-25T12:13:52.323Z,19.35
2023-05-25T12:17:17.877Z,19.469999
2023-05-25T12:20:43.289Z,19.620001
2023-05-25T12:24:08.359Z,19.6
2023-05-25T12:27:33.625Z,19.5
2023-05-25T12:30:58.910Z,19.42
2023-05-25T12:34:24.182Z,19.389999
2023-05-25T12:37:49.421Z,19.48
2023-05-25T12:41:14.648Z,19.559999
2023-05-25T12:44:39.996Z,19.57
2023-05-25T12:48:05.293Z,19.52
2023-05-25T12:51:30.564Z,19.5
2023-05-25T12:54:55.786Z,19.459999
2023-05-25T12:58:21.094Z,19.440001
2023-05-25T13:01:46.348Z,19.35
2023-05-25T13:05:11.625Z,19.290001
2023-05-25T13:08:36.929Z,19.379999
2023-05-25T13:12:02.165Z,19.48
2023-05-25T13:15:27.403Z,19.48
2023-05-25T13:18:52.618Z,19.459999
2023-05-25T13:22:17.967Z,19.459999
2023-05-25T13:25:43.292Z,19.48
2023-05-25T13:29:08.544Z,19.540001
2023-05-25T13:32:33.844Z,19.48
2023-05-25T13:35:59.291Z,19.41
2023-05-25T13:39:24.382Z,19.459999
2023-05-25T13:42:49.649Z,19.49
2023-05-25T13:46:26.276Z,19.469999
2023-05-25T13:49:41.218Z,19.5
2023-05-25T13:53:06.476Z,19.5
2023-05-25T13:56:31.715Z,19.51
2023-05-25T13:59:57.000Z,19.5
2023-05-25T14:03:22.331Z,19.459999
2023-05-25T14:06:47.429Z,19.459999
2023-05-25T14:10:12.681Z,19.549999
2023-05-25T14:13:37.941Z,19.57
2023-05-25T14:17:03.205Z,19.540001
2023-05-25T14:20:28.423Z,19.51
2023-05-25T14:23:53.656Z,19.51
2023-05-25T14:27:18.943Z,19.540001
2023-05-25T14:30:44.194Z,19.559999
2023-05-25T14:34:09.499Z,19.559999
2023-05-25T14:37:34.709Z,19.51
2023-05-25T14:40:59.983Z,19.51
2023-05-25T14:44:25.203Z,19.5
2023-05-25T14:47:53.590Z,19.48
2023-05-25T14:51:16.091Z,19.49
2023-05-25T14:54:41.314Z,19.530001
2023-05-25T14:58:06.572Z,19.58
2023-05-25T15:01:31.819Z,19.59
2023-05-25T15:04:57.053Z,19.559999
2023-05-25T15:08:22.354Z,19.5
2023-05-25T15:44:57.360Z,17.1
2023-05-25T15:48:23.748Z,18.030001
2023-05-25T15:51:47.764Z,18.24
2023-05-25T15:55:13.264Z,18.41
2023-05-25T15:58:38.471Z,18.5
2023-05-25T16:02:03.775Z,18.559999
2023-05-25T16:05:28.985Z,18.59
2023-05-25T16:08:54.197Z,18.59
2023-05-25T16:12:20.801Z,18.65
2023-05-25T16:15:54.222Z,18.68
2023-05-25T16:19:19.470Z,18.66
2023-05-25T16:22:47.288Z,18.6
2023-05-25T16:26:12.683Z,18.57
2023-05-25T16:29:38.537Z,18.549999
2023-05-25T16:33:03.824Z,18.51
2023-05-25T16:36:29.057Z,18.5
2023-05-25T16:39:54.267Z,18.469999
2023-05-25T16:43:19.476Z,18.450001
2023-05-25T16:46:44.751Z,18.41
2023-05-25T16:50:09.944Z,18.360001
2023-05-25T16:53:35.296Z,18.33
2023-05-25T16:57:00.464Z,18.309999
2023-05-25T17:00:25.696Z,18.309999
2023-05-25T17:03:51.184Z,18.299999
2023-05-25T17:07:16.246Z,18.27
2023-05-25T17:10:41.496Z,18.219999
2023-05-25T17:14:06.689Z,18.139999
2023-05-25T17:17:31.916Z,18.059999
2023-05-25T17:20:57.172Z,18.01
2023-05-25T17:24:22.423Z,17.98
2023-05-25T17:27:47.661Z,17.969999
2023-05-25T17:31:12.867Z,17.99
2023-05-25T17:34:38.052Z,17.959999
2023-05-25T17:38:03.292Z,17.93
2023-05-25T17:41:28.539Z,17.879999
2023-05-25T17:44:53.824Z,17.799999
2023-05-25T17:48:19.000Z,17.76
2023-05-25T17:51:44.224Z,17.76
2023-05-25T17:55:09.431Z,17.719999
2023-05-25T17:58:34.643Z,17.700001
2023-05-25T18:01:59.953Z,17.65
2023-05-25T18:05:25.130Z,17.6
2023-05-25T18:08:50.345Z,17.549999
2023-05-25T18:12:15.586Z,17.48
2023-05-25T18:15:40.840Z,17.389999
2023-05-25T18:19:06.099Z,17.309999
2023-05-25T18:22:31.353Z,17.27
2023-05-25T18:25:56.569Z,17.190001
2023-05-25T18:29:21.854Z,17.139999
2023-05-25T18:32:47.228Z,17.110001
2023-05-25T18:36:12.424Z,17.07
2023-05-25T18:39:37.660Z,17.030001
2023-05-25T18:43:02.866Z,16.959999
2023-05-25T18:46:28.185Z,16.91
2023-05-25T18:49:53.359Z,16.889999
2023-05-25T18:53:18.607Z,16.84
2023-05-25T18:56:43.828Z,16.790001
2023-05-25T19:00:09.045Z,16.74
2023-05-25T19:03:34.410Z,16.709999
2023-05-25T19:06:59.604Z,16.65
2023-05-25T19:10:24.908Z,16.6
2023-05-25T19:13:50.111Z,16.52
2023-05-25T19:17:15.380Z,16.43
2023-05-25T19:20:40.644Z,16.35
2023-05-25T19:24:05.793Z,16.27
2023-05-25T19:27:31.102Z,16.219999
2023-05-25T19:30:56.402Z,16.18
2023-05-25T19:34:21.641Z,16.059999
2023-05-25T19:37:46.950Z,16
2023-05-25T19:41:12.217Z,15.94
2023-05-25T19:44:37.489Z,15.91
2023-05-25T19:48:02.722Z,15.88
2023-05-25T19:51:27.945Z,15.84
2023-05-25T19:54:53.154Z,15.76
2023-05-25T19:58:18.386Z,15.7
2023-05-25T20:01:43.696Z,15.67
2023-05-25T20:05:08.814Z,15.65
2023-05-25T20:08:34.035Z,15.59
2023-05-25T20:11:59.259Z,15.57
2023-05-25T20:15:24.520Z,15.53
2023-05-25T20:18:49.819Z,15.49
2023-05-25T20:22:15.083Z,15.46
2023-05-25T20:25:40.347Z,15.41
2023-05-25T20:29:05.557Z,15.43
2023-05-25T20:32:30.839Z,15.41
2023-05-25T20:35:56.059Z,15.4
2023-05-25T20:39:22.225Z,15.36
2023-05-25T20:42:47.471Z,15.29
2023-05-25T20:46:12.737Z,15.22
2023-05-25T20:49:37.987Z,15.17
2023-05-25T20:53:03.299Z,15.16
2023-05-25T20:56:28.510Z,15.15
2023-05-25T20:59:53.737Z,15.13
2023-05-25T21:03:19.086Z,15.12
2023-05-25T21:06:44.201Z,15.08
2023-05-25T21:10:09.478Z,15.05
2023-05-25T21:13:34.680Z,15.01
2023-05-25T21:16:59.912Z,14.97
2023-05-25T21:20:25.249Z,14.93
2023-05-25T21:23:50.470Z,14.85
2023-05-25T21:27:15.739Z,14.85
2023-05-25T21:30:40.975Z,14.83
2023-05-25T21:34:06.218Z,14.77
2023-05-25T21:37:31.504Z,14.71
2023-05-25T21:40:56.740Z,14.64
2023-05-25T21:44:21.976Z,14.62
2023-05-25T21:47:47.261Z,14.6
2023-05-25T21:51:12.444Z,14.57
2023-05-25T21:54:37.711Z,14.54
2023-05-25T21:58:02.956Z,14.51
2023-05-25T22:01:28.272Z,14.49
2023-05-25T22:04:53.432Z,14.46
2023-05-25T22:08:18.674Z,14.46
2023-05-25T22:11:43.912Z,14.44
2023-05-25T22:15:09.143Z,14.43
2023-05-25T22:18:36.022Z,14.41
2023-05-25T22:21:59.614Z,14.37
2023-05-25T22:25:24.891Z,14.36
2023-05-25T22:28:50.109Z,14.32
2023-05-25T22:32:15.351Z,14.3
2023-05-25T22:35:40.617Z,14.27
2023-05-25T22:39:05.831Z,14.24
2023-05-25T22:42:31.073Z,14.21
2023-05-25T22:45:56.326Z,14.17
2023-05-25T22:49:21.547Z,14.13
2023-05-25T22:52:46.800Z,14.1
2023-05-25T22:56:12.003Z,14.1
2023-05-25T22:59:37.213Z,14.09
2023-05-25T23:03:04.396Z,14.08
2023-05-25T23:06:27.698Z,14.06
2023-05-25T23:09:52.962Z,14.01
2023-05-25T23:13:18.186Z,13.98
2023-05-25T23:16:43.488Z,13.97
2023-05-25T23:20:08.668Z,13.97
2023-05-25T23:23:33.914Z,13.95
2023-05-25T23:26:59.214Z,13.94
2023-05-25T23:30:24.463Z,13.92
2023-05-25T23:33:49.715Z,13.89
2023-05-25T23:37:14.938Z,13.86
2023-05-25T23:40:40.194Z,13.83
2023-05-25T23:44:05.435Z,13.82
2023-05-25T23:47:30.680Z,13.78
2023-05-25T23:50:55.926Z,13.74
2023-05-25T23:54:21.104Z,13.68
2023-05-25T23:57:46.365Z,13.62
